sensor_id;sensor_type;location;lat;lon;timestamp;P1;durP1;ratioP1;P2;durP2;ratioP2
72478;SDS011;60658;52.246;5.258;2022-12-07T00:01:07;13.48;;;6.90;;
72478;SDS011;60658;52.246;5.258;2022-12-07T00:05:00;12.70;;;6.82;;
72478;SDS011;60658;52.246;5.258;2022-12-07T00:06:26;15.25;;;6.35;;
72478;SDS011;60658;52.246;5.258;2022-12-07T00:08:00;11.52;;;6.32;;
72478;SDS011;60658;52.246;5.258;2022-12-07T00:09:18;14.60;;;7.43;;
72478;SDS011;60658;52.246;5.258;2022-12-07T00:12:03;17.30;;;6.80;;
72478;SDS011;60658;52.246;5.258;2022-12-07T00:13:23;13.05;;;6.75;;
72478;SDS011;60658;52.246;5.258;2022-12-07T00:14:35;15.27;;;6.78;;
72478;SDS011;60658;52.246;5.258;2022-12-07T00:17:35;15.55;;;6.20;;
72478;SDS011;60658;52.246;5.258;2022-12-07T00:19:52;14.93;;;6.20;;
72478;SDS011;60658;52.246;5.258;2022-12-07T00:21:53;12.02;;;5.60;;
72478;SDS011;60658;52.246;5.258;2022-12-07T00:24:48;13.77;;;6.32;;
72478;SDS011;60658;52.246;5.258;2022-12-07T00:26:02;13.18;;;5.70;;
72478;SDS011;60658;52.246;5.258;2022-12-07T00:27:41;11.43;;;5.10;;
72478;SDS011;60658;52.246;5.258;2022-12-07T00:28:47;10.30;;;5.45;;
72478;SDS011;60658;52.246;5.258;2022-12-07T00:47:04;10.00;;;4.63;;
72478;SDS011;60658;52.246;5.258;2022-12-07T00:49:03;11.30;;;5.05;;
72478;SDS011;60658;52.246;5.258;2022-12-07T00:50:15;11.27;;;5.25;;
72478;SDS011;60658;52.246;5.258;2022-12-07T00:52:05;14.25;;;5.75;;
72478;SDS011;60658;52.246;5.258;2022-12-07T00:58:15;10.40;;;4.80;;
72478;SDS011;60658;52.246;5.258;2022-12-07T00:59:52;11.40;;;4.75;;
72478;SDS011;60658;52.246;5.258;2022-12-07T01:02:46;9.82;;;4.78;;
72478;SDS011;60658;52.246;5.258;2022-12-07T01:03:54;9.10;;;4.50;;
72478;SDS011;60658;52.246;5.258;2022-12-07T01:05:28;8.88;;;4.15;;
72478;SDS011;60658;52.246;5.258;2022-12-07T01:07:27;13.13;;;4.82;;
72478;SDS011;60658;52.246;5.258;2022-12-07T01:08:24;9.85;;;4.28;;
72478;SDS011;60658;52.246;5.258;2022-12-07T01:09:27;10.35;;;4.25;;
72478;SDS011;60658;52.246;5.258;2022-12-07T01:10:34;14.65;;;3.55;;
72478;SDS011;60658;52.246;5.258;2022-12-07T01:11:51;10.25;;;4.20;;
72478;SDS011;60658;52.246;5.258;2022-12-07T01:13:14;9.05;;;4.07;;
72478;SDS011;60658;52.246;5.258;2022-12-07T01:15:57;8.73;;;4.20;;
72478;SDS011;60658;52.246;5.258;2022-12-07T01:17:28;8.73;;;4.13;;
72478;SDS011;60658;52.246;5.258;2022-12-07T01:18:45;12.38;;;4.35;;
72478;SDS011;60658;52.246;5.258;2022-12-07T01:20:03;10.90;;;3.67;;
72478;SDS011;60658;52.246;5.258;2022-12-07T01:21:05;8.68;;;4.03;;
72478;SDS011;60658;52.246;5.258;2022-12-07T01:22:19;10.10;;;4.25;;
72478;SDS011;60658;52.246;5.258;2022-12-07T01:24:54;9.82;;;4.10;;
72478;SDS011;60658;52.246;5.258;2022-12-07T01:26:10;12.05;;;3.83;;
72478;SDS011;60658;52.246;5.258;2022-12-07T01:27:54;10.35;;;3.20;;
72478;SDS011;60658;52.246;5.258;2022-12-07T01:30:24;11.50;;;3.78;;
72478;SDS011;60658;52.246;5.258;2022-12-07T01:31:28;12.60;;;3.80;;
72478;SDS011;60658;52.246;5.258;2022-12-07T01:33:06;7.93;;;3.78;;
72478;SDS011;60658;52.246;5.258;2022-12-07T01:34:19;8.82;;;3.40;;
72478;SDS011;60658;52.246;5.258;2022-12-07T01:35:40;8.38;;;3.20;;
72478;SDS011;60658;52.246;5.258;2022-12-07T01:36:56;10.55;;;3.13;;
72478;SDS011;60658;52.246;5.258;2022-12-07T01:38:00;9.07;;;3.13;;
72478;SDS011;60658;52.246;5.258;2022-12-07T01:39:21;10.82;;;3.40;;
72478;SDS011;60658;52.246;5.258;2022-12-07T01:40:33;7.78;;;2.80;;
72478;SDS011;60658;52.246;5.258;2022-12-07T01:43:16;8.00;;;2.47;;
72478;SDS011;60658;52.246;5.258;2022-12-07T01:47:00;8.25;;;2.30;;
72478;SDS011;60658;52.246;5.258;2022-12-07T01:48:13;10.40;;;2.70;;
72478;SDS011;60658;52.246;5.258;2022-12-07T01:54:29;6.72;;;2.50;;
72478;SDS011;60658;52.246;5.258;2022-12-07T01:57:45;6.93;;;1.70;;
72478;SDS011;60658;52.246;5.258;2022-12-07T02:04:28;7.95;;;1.60;;
72478;SDS011;60658;52.246;5.258;2022-12-07T02:09:17;9.23;;;1.90;;
72478;SDS011;60658;52.246;5.258;2022-12-07T02:10:41;5.50;;;1.90;;
72478;SDS011;60658;52.246;5.258;2022-12-07T02:15:08;7.32;;;1.60;;
72478;SDS011;60658;52.246;5.258;2022-12-07T02:16:25;6.13;;;1.80;;
72478;SDS011;60658;52.246;5.258;2022-12-07T02:18:00;9.82;;;1.90;;
72478;SDS011;60658;52.246;5.258;2022-12-07T02:19:13;6.30;;;1.80;;
72478;SDS011;60658;52.246;5.258;2022-12-07T02:20:30;7.63;;;1.60;;
72478;SDS011;60658;52.246;5.258;2022-12-07T02:21:40;7.05;;;1.65;;
72478;SDS011;60658;52.246;5.258;2022-12-07T02:26:02;9.45;;;1.92;;
72478;SDS011;60658;52.246;5.258;2022-12-07T02:29:12;5.53;;;1.80;;
72478;SDS011;60658;52.246;5.258;2022-12-07T02:30:35;6.60;;;1.80;;
72478;SDS011;60658;52.246;5.258;2022-12-07T02:32:11;10.25;;;2.13;;
72478;SDS011;60658;52.246;5.258;2022-12-07T02:34:03;9.02;;;2.20;;
72478;SDS011;60658;52.246;5.258;2022-12-07T02:35:30;7.47;;;2.20;;
72478;SDS011;60658;52.246;5.258;2022-12-07T02:36:42;7.80;;;2.30;;
72478;SDS011;60658;52.246;5.258;2022-12-07T02:39:33;7.18;;;2.38;;
72478;SDS011;60658;52.246;5.258;2022-12-07T02:41:00;9.48;;;3.55;;
72478;SDS011;60658;52.246;5.258;2022-12-07T02:46:58;3.40;;;1.58;;
72478;SDS011;60658;52.246;5.258;2022-12-07T02:48:24;10.68;;;2.22;;
72478;SDS011;60658;52.246;5.258;2022-12-07T02:51:14;5.50;;;1.48;;
72478;SDS011;60658;52.246;5.258;2022-12-07T02:52:31;12.13;;;1.73;;
72478;SDS011;60658;52.246;5.258;2022-12-07T02:53:37;8.63;;;2.05;;
72478;SDS011;60658;52.246;5.258;2022-12-07T02:54:43;11.30;;;2.13;;
72478;SDS011;60658;52.246;5.258;2022-12-07T02:55:47;6.85;;;1.60;;
72478;SDS011;60658;52.246;5.258;2022-12-07T02:56:56;5.47;;;1.50;;
72478;SDS011;60658;52.246;5.258;2022-12-07T02:58:06;3.95;;;1.30;;
72478;SDS011;60658;52.246;5.258;2022-12-07T02:59:17;6.70;;;1.80;;
72478;SDS011;60658;52.246;5.258;2022-12-07T03:00:41;6.68;;;1.63;;
72478;SDS011;60658;52.246;5.258;2022-12-07T03:01:58;9.07;;;1.80;;
72478;SDS011;60658;52.246;5.258;2022-12-07T03:03:12;6.78;;;1.50;;
72478;SDS011;60658;52.246;5.258;2022-12-07T03:04:32;4.90;;;1.60;;
72478;SDS011;60658;52.246;5.258;2022-12-07T03:07:14;9.82;;;2.28;;
72478;SDS011;60658;52.246;5.258;2022-12-07T03:08:30;6.35;;;1.75;;
72478;SDS011;60658;52.246;5.258;2022-12-07T03:09:47;5.78;;;1.60;;
72478;SDS011;60658;52.246;5.258;2022-12-07T03:11:05;7.65;;;1.50;;
72478;SDS011;60658;52.246;5.258;2022-12-07T03:12:09;7.07;;;1.58;;
72478;SDS011;60658;52.246;5.258;2022-12-07T03:13:18;10.20;;;1.60;;
72478;SDS011;60658;52.246;5.258;2022-12-07T03:30:22;8.20;;;1.77;;
72478;SDS011;60658;52.246;5.258;2022-12-07T03:31:31;6.88;;;1.60;;
72478;SDS011;60658;52.246;5.258;2022-12-07T03:32:41;11.60;;;2.20;;
72478;SDS011;60658;52.246;5.258;2022-12-07T03:34:17;8.40;;;1.80;;
72478;SDS011;60658;52.246;5.258;2022-12-07T03:35:33;7.70;;;1.80;;
72478;SDS011;60658;52.246;5.258;2022-12-07T03:36:41;5.80;;;2.10;;
72478;SDS011;60658;52.246;5.258;2022-12-07T03:37:58;6.07;;;1.67;;
72478;SDS011;60658;52.246;5.258;2022-12-07T03:39:12;10.70;;;2.70;;
72478;SDS011;60658;52.246;5.258;2022-12-07T03:41:55;5.32;;;1.48;;
72478;SDS011;60658;52.246;5.258;2022-12-07T03:43:00;5.90;;;1.65;;
72478;SDS011;60658;52.246;5.258;2022-12-07T03:45:50;7.97;;;1.92;;
72478;SDS011;60658;52.246;5.258;2022-12-07T03:48:46;7.35;;;2.20;;
72478;SDS011;60658;52.246;5.258;2022-12-07T03:50:05;6.00;;;2.03;;
72478;SDS011;60658;52.246;5.258;2022-12-07T03:51:28;7.72;;;1.83;;
72478;SDS011;60658;52.246;5.258;2022-12-07T03:54:19;7.32;;;1.80;;
72478;SDS011;60658;52.246;5.258;2022-12-07T03:55:45;4.88;;;1.83;;
72478;SDS011;60658;52.246;5.258;2022-12-07T03:56:52;5.32;;;1.33;;
72478;SDS011;60658;52.246;5.258;2022-12-07T03:58:15;5.97;;;1.65;;
72478;SDS011;60658;52.246;5.258;2022-12-07T03:59:30;7.88;;;1.67;;
72478;SDS011;60658;52.246;5.258;2022-12-07T04:03:10;9.82;;;1.58;;
72478;SDS011;60658;52.246;5.258;2022-12-07T04:04:35;5.10;;;1.52;;
72478;SDS011;60658;52.246;5.258;2022-12-07T04:05:42;7.47;;;1.50;;
72478;SDS011;60658;52.246;5.258;2022-12-07T04:06:46;5.88;;;1.55;;
72478;SDS011;60658;52.246;5.258;2022-12-07T04:07:58;7.20;;;1.55;;
72478;SDS011;60658;52.246;5.258;2022-12-07T04:09:05;5.35;;;1.40;;
72478;SDS011;60658;52.246;5.258;2022-12-07T04:11:56;5.72;;;1.30;;
72478;SDS011;60658;52.246;5.258;2022-12-07T04:13:02;3.63;;;1.30;;
72478;SDS011;60658;52.246;5.258;2022-12-07T04:14:09;5.45;;;1.60;;
72478;SDS011;60658;52.246;5.258;2022-12-07T04:16:56;4.82;;;1.50;;
72478;SDS011;60658;52.246;5.258;2022-12-07T04:20:53;7.60;;;1.83;;
72478;SDS011;60658;52.246;5.258;2022-12-07T04:22:15;8.05;;;1.52;;
72478;SDS011;60658;52.246;5.258;2022-12-07T04:23:27;6.15;;;1.50;;
72478;SDS011;60658;52.246;5.258;2022-12-07T04:25:01;7.53;;;1.60;;
72478;SDS011;60658;52.246;5.258;2022-12-07T04:26:37;5.47;;;1.42;;
72478;SDS011;60658;52.246;5.258;2022-12-07T04:27:46;7.93;;;1.65;;
72478;SDS011;60658;52.246;5.258;2022-12-07T04:29:02;6.72;;;1.40;;
72478;SDS011;60658;52.246;5.258;2022-12-07T04:30:22;3.03;;;1.10;;
72478;SDS011;60658;52.246;5.258;2022-12-07T04:31:25;8.63;;;2.03;;
72478;SDS011;60658;52.246;5.258;2022-12-07T04:32:29;8.90;;;1.58;;
72478;SDS011;60658;52.246;5.258;2022-12-07T04:33:29;8.02;;;1.75;;
72478;SDS011;60658;52.246;5.258;2022-12-07T04:35:59;9.63;;;1.35;;
72478;SDS011;60658;52.246;5.258;2022-12-07T04:37:10;6.20;;;1.40;;
72478;SDS011;60658;52.246;5.258;2022-12-07T04:38:13;8.25;;;1.45;;
72478;SDS011;60658;52.246;5.258;2022-12-07T04:39:19;5.40;;;1.42;;
72478;SDS011;60658;52.246;5.258;2022-12-07T04:40:23;6.07;;;1.10;;
72478;SDS011;60658;52.246;5.258;2022-12-07T04:41:42;5.70;;;1.33;;
72478;SDS011;60658;52.246;5.258;2022-12-07T04:42:46;5.70;;;1.13;;
72478;SDS011;60658;52.246;5.258;2022-12-07T04:43:55;8.00;;;1.50;;
72478;SDS011;60658;52.246;5.258;2022-12-07T04:45:02;6.25;;;1.58;;
72478;SDS011;60658;52.246;5.258;2022-12-07T04:46:07;5.55;;;1.20;;
72478;SDS011;60658;52.246;5.258;2022-12-07T04:48:48;5.45;;;1.17;;
72478;SDS011;60658;52.246;5.258;2022-12-07T04:49:54;5.28;;;1.10;;
72478;SDS011;60658;52.246;5.258;2022-12-07T04:51:34;5.55;;;1.10;;
72478;SDS011;60658;52.246;5.258;2022-12-07T04:53:05;4.22;;;1.83;;
72478;SDS011;60658;52.246;5.258;2022-12-07T04:54:22;5.57;;;0.95;;
72478;SDS011;60658;52.246;5.258;2022-12-07T04:58:43;5.85;;;1.20;;
72478;SDS011;60658;52.246;5.258;2022-12-07T05:01:14;7.68;;;1.58;;
72478;SDS011;60658;52.246;5.258;2022-12-07T05:40:11;6.00;;;1.58;;
72478;SDS011;60658;52.246;5.258;2022-12-07T05:41:31;7.38;;;1.25;;
72478;SDS011;60658;52.246;5.258;2022-12-07T05:43:03;9.52;;;1.60;;
72478;SDS011;60658;52.246;5.258;2022-12-07T05:49:19;9.95;;;1.60;;
72478;SDS011;60658;52.246;5.258;2022-12-07T05:50:38;5.22;;;1.20;;
72478;SDS011;60658;52.246;5.258;2022-12-07T05:51:58;7.50;;;1.30;;
72478;SDS011;60658;52.246;5.258;2022-12-07T05:53:10;7.75;;;1.48;;
72478;SDS011;60658;52.246;5.258;2022-12-07T05:54:19;8.32;;;1.52;;
72478;SDS011;60658;52.246;5.258;2022-12-07T05:55:24;5.63;;;1.30;;
72478;SDS011;60658;52.246;5.258;2022-12-07T05:56:27;10.55;;;1.67;;
72478;SDS011;60658;52.246;5.258;2022-12-07T05:57:34;6.57;;;1.50;;
72478;SDS011;60658;52.246;5.258;2022-12-07T05:58:49;9.63;;;1.50;;
72478;SDS011;60658;52.246;5.258;2022-12-07T05:59:50;7.72;;;1.30;;
72478;SDS011;60658;52.246;5.258;2022-12-07T06:00:56;6.82;;;1.70;;
72478;SDS011;60658;52.246;5.258;2022-12-07T06:02:00;5.32;;;1.48;;
72478;SDS011;60658;52.246;5.258;2022-12-07T06:03:21;6.65;;;1.45;;
72478;SDS011;60658;52.246;5.258;2022-12-07T06:04:30;6.20;;;1.27;;
72478;SDS011;60658;52.246;5.258;2022-12-07T06:05:34;5.75;;;1.52;;
72478;SDS011;60658;52.246;5.258;2022-12-07T06:06:46;7.40;;;1.48;;
72478;SDS011;60658;52.246;5.258;2022-12-07T06:07:49;6.78;;;1.50;;
72478;SDS011;60658;52.246;5.258;2022-12-07T06:09:00;5.38;;;1.67;;
72478;SDS011;60658;52.246;5.258;2022-12-07T06:10:07;9.25;;;1.58;;
72478;SDS011;60658;52.246;5.258;2022-12-07T06:11:19;6.53;;;1.50;;
72478;SDS011;60658;52.246;5.258;2022-12-07T06:12:23;6.20;;;1.45;;
72478;SDS011;60658;52.246;5.258;2022-12-07T06:13:33;5.85;;;2.05;;
72478;SDS011;60658;52.246;5.258;2022-12-07T06:14:34;6.30;;;1.30;;
72478;SDS011;60658;52.246;5.258;2022-12-07T06:15:37;6.03;;;1.45;;
72478;SDS011;60658;52.246;5.258;2022-12-07T06:16:46;6.20;;;1.60;;
72478;SDS011;60658;52.246;5.258;2022-12-07T06:18:21;7.50;;;1.50;;
72478;SDS011;60658;52.246;5.258;2022-12-07T06:25:09;6.72;;;1.40;;
72478;SDS011;60658;52.246;5.258;2022-12-07T06:28:11;6.97;;;1.10;;
72478;SDS011;60658;52.246;5.258;2022-12-07T06:29:54;6.90;;;1.50;;
72478;SDS011;60658;52.246;5.258;2022-12-07T06:31:10;8.57;;;1.38;;
72478;SDS011;60658;52.246;5.258;2022-12-07T06:34:18;6.40;;;1.23;;
72478;SDS011;60658;52.246;5.258;2022-12-07T06:36:41;7.15;;;1.40;;
72478;SDS011;60658;52.246;5.258;2022-12-07T06:38:25;5.47;;;1.00;;
72478;SDS011;60658;52.246;5.258;2022-12-07T06:39:48;5.80;;;1.48;;
72478;SDS011;60658;52.246;5.258;2022-12-07T06:42:13;8.30;;;1.40;;
72478;SDS011;60658;52.246;5.258;2022-12-07T06:43:25;7.80;;;1.40;;
72478;SDS011;60658;52.246;5.258;2022-12-07T06:44:39;7.63;;;1.30;;
72478;SDS011;60658;52.246;5.258;2022-12-07T06:45:57;5.05;;;1.30;;
72478;SDS011;60658;52.246;5.258;2022-12-07T06:47:02;7.28;;;1.50;;
72478;SDS011;60658;52.246;5.258;2022-12-07T06:52:21;5.20;;;1.45;;
72478;SDS011;60658;52.246;5.258;2022-12-07T06:54:07;8.23;;;1.55;;
72478;SDS011;60658;52.246;5.258;2022-12-07T06:56:48;10.10;;;2.10;;
72478;SDS011;60658;52.246;5.258;2022-12-07T06:57:16;6.63;;;1.90;;
72478;SDS011;60658;52.246;5.258;2022-12-07T06:57:52;13.32;;;2.03;;
72478;SDS011;60658;52.246;5.258;2022-12-07T07:03:10;9.80;;;1.63;;
72478;SDS011;60658;52.246;5.258;2022-12-07T07:04:28;8.68;;;1.98;;
72478;SDS011;60658;52.246;5.258;2022-12-07T07:05:34;6.30;;;2.05;;
72478;SDS011;60658;52.246;5.258;2022-12-07T07:06:40;7.63;;;1.95;;
72478;SDS011;60658;52.246;5.258;2022-12-07T07:07:44;9.43;;;2.00;;
72478;SDS011;60658;52.246;5.258;2022-12-07T07:08:47;8.85;;;1.88;;
72478;SDS011;60658;52.246;5.258;2022-12-07T07:09:53;9.20;;;2.10;;
72478;SDS011;60658;52.246;5.258;2022-12-07T07:10:57;8.65;;;2.03;;
72478;SDS011;60658;52.246;5.258;2022-12-07T07:12:02;10.00;;;2.40;;
72478;SDS011;60658;52.246;5.258;2022-12-07T07:13:18;9.52;;;3.08;;
72478;SDS011;60658;52.246;5.258;2022-12-07T07:14:21;11.18;;;2.65;;
72478;SDS011;60658;52.246;5.258;2022-12-07T07:15:31;9.55;;;2.88;;
72478;SDS011;60658;52.246;5.258;2022-12-07T07:16:32;11.20;;;3.08;;
72478;SDS011;60658;52.246;5.258;2022-12-07T07:17:42;11.43;;;3.30;;
72478;SDS011;60658;52.246;5.258;2022-12-07T07:18:45;12.48;;;3.80;;
72478;SDS011;60658;52.246;5.258;2022-12-07T07:19:51;11.90;;;3.90;;
72478;SDS011;60658;52.246;5.258;2022-12-07T07:20:54;16.25;;;4.88;;
72478;SDS011;60658;52.246;5.258;2022-12-07T07:22:22;12.32;;;4.57;;
72478;SDS011;60658;52.246;5.258;2022-12-07T07:23:43;13.07;;;4.28;;
72478;SDS011;60658;52.246;5.258;2022-12-07T07:24:55;13.20;;;4.05;;
72478;SDS011;60658;52.246;5.258;2022-12-07T07:26:03;12.07;;;4.15;;
72478;SDS011;60658;52.246;5.258;2022-12-07T07:28:57;12.32;;;3.20;;
72478;SDS011;60658;52.246;5.258;2022-12-07T07:29:58;10.70;;;3.65;;
72478;SDS011;60658;52.246;5.258;2022-12-07T07:31:04;9.98;;;3.30;;
72478;SDS011;60658;52.246;5.258;2022-12-07T07:32:21;11.00;;;3.03;;
72478;SDS011;60658;52.246;5.258;2022-12-07T07:34:02;10.20;;;2.67;;
72478;SDS011;60658;52.246;5.258;2022-12-07T07:36:32;12.27;;;2.45;;
72478;SDS011;60658;52.246;5.258;2022-12-07T07:36:40;12.90;;;3.25;;
72478;SDS011;60658;52.246;5.258;2022-12-07T07:37:47;8.35;;;2.67;;
72478;SDS011;60658;52.246;5.258;2022-12-07T07:38:50;9.00;;;2.88;;
72478;SDS011;60658;52.246;5.258;2022-12-07T07:41:55;10.35;;;3.40;;
72478;SDS011;60658;52.246;5.258;2022-12-07T07:43:35;12.57;;;3.30;;
72478;SDS011;60658;52.246;5.258;2022-12-07T07:44:57;11.35;;;3.40;;
72478;SDS011;60658;52.246;5.258;2022-12-07T07:48:08;14.82;;;3.58;;
72478;SDS011;60658;52.246;5.258;2022-12-07T07:49:11;10.65;;;3.45;;
72478;SDS011;60658;52.246;5.258;2022-12-07T07:50:22;9.70;;;3.67;;
72478;SDS011;60658;52.246;5.258;2022-12-07T07:53:33;10.35;;;3.28;;
72478;SDS011;60658;52.246;5.258;2022-12-07T07:54:37;13.43;;;3.72;;
72478;SDS011;60658;52.246;5.258;2022-12-07T07:55:49;10.77;;;3.67;;
72478;SDS011;60658;52.246;5.258;2022-12-07T07:58:29;6.78;;;2.92;;
72478;SDS011;60658;52.246;5.258;2022-12-07T08:03:59;6.53;;;2.60;;
72478;SDS011;60658;52.246;5.258;2022-12-07T08:11:05;12.50;;;2.45;;
72478;SDS011;60658;52.246;5.258;2022-12-07T08:14:14;4.35;;;1.02;;
72478;SDS011;60658;52.246;5.258;2022-12-07T08:16:24;3.10;;;1.17;;
72478;SDS011;60658;52.246;5.258;2022-12-07T08:17:25;6.70;;;1.58;;
72478;SDS011;60658;52.246;5.258;2022-12-07T08:18:25;3.53;;;1.52;;
72478;SDS011;60658;52.246;5.258;2022-12-07T08:19:29;6.65;;;1.65;;
72478;SDS011;60658;52.246;5.258;2022-12-07T08:20:30;8.30;;;1.60;;
72478;SDS011;60658;52.246;5.258;2022-12-07T08:21:30;6.28;;;1.65;;
72478;SDS011;60658;52.246;5.258;2022-12-07T08:22:31;6.90;;;1.90;;
72478;SDS011;60658;52.246;5.258;2022-12-07T08:23:32;8.68;;;2.42;;
72478;SDS011;60658;52.246;5.258;2022-12-07T08:24:34;7.65;;;1.67;;
72478;SDS011;60658;52.246;5.258;2022-12-07T08:25:35;6.55;;;1.80;;
72478;SDS011;60658;52.246;5.258;2022-12-07T08:26:36;7.30;;;2.00;;
72478;SDS011;60658;52.246;5.258;2022-12-07T08:27:36;7.78;;;3.55;;
72478;SDS011;60658;52.246;5.258;2022-12-07T08:28:37;6.70;;;1.80;;
72478;SDS011;60658;52.246;5.258;2022-12-07T08:29:38;7.93;;;2.33;;
72478;SDS011;60658;52.246;5.258;2022-12-07T08:30:38;6.53;;;2.35;;
72478;SDS011;60658;52.246;5.258;2022-12-07T08:31:39;6.20;;;2.35;;
72478;SDS011;60658;52.246;5.258;2022-12-07T08:32:40;6.03;;;2.78;;
72478;SDS011;60658;52.246;5.258;2022-12-07T08:33:40;13.18;;;2.95;;
72478;SDS011;60658;52.246;5.258;2022-12-07T08:34:41;8.48;;;2.47;;
72478;SDS011;60658;52.246;5.258;2022-12-07T08:35:42;10.57;;;2.58;;
72478;SDS011;60658;52.246;5.258;2022-12-07T08:36:42;9.38;;;2.80;;
72478;SDS011;60658;52.246;5.258;2022-12-07T08:37:43;8.43;;;2.40;;
72478;SDS011;60658;52.246;5.258;2022-12-07T08:38:44;9.13;;;2.40;;
72478;SDS011;60658;52.246;5.258;2022-12-07T08:39:46;5.97;;;2.45;;
72478;SDS011;60658;52.246;5.258;2022-12-07T08:40:52;6.03;;;2.25;;
72478;SDS011;60658;52.246;5.258;2022-12-07T08:41:53;5.85;;;2.00;;
72478;SDS011;60658;52.246;5.258;2022-12-07T08:42:54;13.15;;;2.70;;
72478;SDS011;60658;52.246;5.258;2022-12-07T08:43:54;7.88;;;2.63;;
72478;SDS011;60658;52.246;5.258;2022-12-07T08:44:55;7.20;;;2.47;;
72478;SDS011;60658;52.246;5.258;2022-12-07T08:45:57;9.13;;;2.47;;
72478;SDS011;60658;52.246;5.258;2022-12-07T08:47:00;9.65;;;2.55;;
72478;SDS011;60658;52.246;5.258;2022-12-07T08:48:03;9.70;;;3.10;;
72478;SDS011;60658;52.246;5.258;2022-12-07T08:49:07;5.88;;;2.10;;
72478;SDS011;60658;52.246;5.258;2022-12-07T08:50:08;9.80;;;2.38;;
72478;SDS011;60658;52.246;5.258;2022-12-07T08:51:10;8.57;;;2.28;;
72478;SDS011;60658;52.246;5.258;2022-12-07T08:52:16;7.28;;;2.20;;
72478;SDS011;60658;52.246;5.258;2022-12-07T08:53:17;9.90;;;2.25;;
72478;SDS011;60658;52.246;5.258;2022-12-07T08:54:18;5.10;;;2.13;;
72478;SDS011;60658;52.246;5.258;2022-12-07T08:55:20;8.30;;;2.30;;
72478;SDS011;60658;52.246;5.258;2022-12-07T08:56:24;9.30;;;2.58;;
72478;SDS011;60658;52.246;5.258;2022-12-07T08:57:25;6.07;;;2.28;;
72478;SDS011;60658;52.246;5.258;2022-12-07T08:58:27;7.43;;;2.30;;
72478;SDS011;60658;52.246;5.258;2022-12-07T08:59:27;5.90;;;2.40;;
72478;SDS011;60658;52.246;5.258;2022-12-07T09:00:28;8.02;;;2.50;;
72478;SDS011;60658;52.246;5.258;2022-12-07T09:01:32;8.93;;;2.72;;
72478;SDS011;60658;52.246;5.258;2022-12-07T09:02:32;7.72;;;2.90;;
72478;SDS011;60658;52.246;5.258;2022-12-07T09:03:33;9.70;;;2.40;;
72478;SDS011;60658;52.246;5.258;2022-12-07T09:04:34;5.97;;;2.60;;
72478;SDS011;60658;52.246;5.258;2022-12-07T09:05:34;6.22;;;2.25;;
72478;SDS011;60658;52.246;5.258;2022-12-07T09:06:37;7.72;;;2.13;;
72478;SDS011;60658;52.246;5.258;2022-12-07T09:07:38;8.18;;;2.53;;
72478;SDS011;60658;52.246;5.258;2022-12-07T09:08:40;6.82;;;1.95;;
72478;SDS011;60658;52.246;5.258;2022-12-07T09:09:43;5.75;;;2.38;;
72478;SDS011;60658;52.246;5.258;2022-12-07T09:10:45;5.40;;;2.13;;
72478;SDS011;60658;52.246;5.258;2022-12-07T09:11:46;8.93;;;2.45;;
72478;SDS011;60658;52.246;5.258;2022-12-07T09:12:47;7.00;;;2.72;;
72478;SDS011;60658;52.246;5.258;2022-12-07T09:13:48;10.77;;;2.80;;
72478;SDS011;60658;52.246;5.258;2022-12-07T09:14:48;6.13;;;2.42;;
72478;SDS011;60658;52.246;5.258;2022-12-07T09:15:49;5.68;;;2.72;;
72478;SDS011;60658;52.246;5.258;2022-12-07T09:16:50;9.70;;;2.70;;
72478;SDS011;60658;52.246;5.258;2022-12-07T09:17:51;9.88;;;2.55;;
72478;SDS011;60658;52.246;5.258;2022-12-07T09:18:52;6.63;;;2.40;;
72478;SDS011;60658;52.246;5.258;2022-12-07T09:19:52;7.38;;;3.10;;
72478;SDS011;60658;52.246;5.258;2022-12-07T09:20:53;7.30;;;2.58;;
72478;SDS011;60658;52.246;5.258;2022-12-07T09:21:53;6.13;;;2.70;;
72478;SDS011;60658;52.246;5.258;2022-12-07T09:22:54;8.43;;;2.78;;
72478;SDS011;60658;52.246;5.258;2022-12-07T09:23:55;6.90;;;2.63;;
72478;SDS011;60658;52.246;5.258;2022-12-07T09:24:56;10.25;;;2.80;;
72478;SDS011;60658;52.246;5.258;2022-12-07T09:25:59;6.97;;;2.50;;
72478;SDS011;60658;52.246;5.258;2022-12-07T09:27:00;7.40;;;3.22;;
72478;SDS011;60658;52.246;5.258;2022-12-07T09:28:01;9.45;;;2.80;;
72478;SDS011;60658;52.246;5.258;2022-12-07T09:29:01;8.18;;;2.80;;
72478;SDS011;60658;52.246;5.258;2022-12-07T09:30:02;7.25;;;2.47;;
72478;SDS011;60658;52.246;5.258;2022-12-07T09:31:04;6.78;;;2.10;;
72478;SDS011;60658;52.246;5.258;2022-12-07T09:32:04;6.72;;;2.28;;
72478;SDS011;60658;52.246;5.258;2022-12-07T09:33:05;6.82;;;2.00;;
72478;SDS011;60658;52.246;5.258;2022-12-07T09:34:06;7.22;;;2.13;;
72478;SDS011;60658;52.246;5.258;2022-12-07T09:35:06;5.57;;;2.13;;
72478;SDS011;60658;52.246;5.258;2022-12-07T09:36:07;3.42;;;1.80;;
72478;SDS011;60658;52.246;5.258;2022-12-07T09:37:08;4.00;;;1.80;;
72478;SDS011;60658;52.246;5.258;2022-12-07T09:38:08;7.10;;;2.00;;
72478;SDS011;60658;52.246;5.258;2022-12-07T09:39:09;7.35;;;1.80;;
72478;SDS011;60658;52.246;5.258;2022-12-07T09:40:11;7.57;;;1.73;;
72478;SDS011;60658;52.246;5.258;2022-12-07T09:41:13;4.00;;;1.25;;
72478;SDS011;60658;52.246;5.258;2022-12-07T09:42:18;5.05;;;1.60;;
72478;SDS011;60658;52.246;5.258;2022-12-07T09:44:25;5.80;;;1.95;;
72478;SDS011;60658;52.246;5.258;2022-12-07T09:45:28;3.90;;;1.40;;
72478;SDS011;60658;52.246;5.258;2022-12-07T09:46:31;5.80;;;1.63;;
72478;SDS011;60658;52.246;5.258;2022-12-07T09:47:34;5.47;;;1.40;;
72478;SDS011;60658;52.246;5.258;2022-12-07T09:48:35;4.30;;;1.35;;
72478;SDS011;60658;52.246;5.258;2022-12-07T09:49:36;5.47;;;1.45;;
72478;SDS011;60658;52.246;5.258;2022-12-07T09:50:37;4.75;;;1.30;;
72478;SDS011;60658;52.246;5.258;2022-12-07T09:51:38;7.07;;;1.38;;
72478;SDS011;60658;52.246;5.258;2022-12-07T09:52:38;4.45;;;1.50;;
72478;SDS011;60658;52.246;5.258;2022-12-07T09:53:39;10.52;;;1.40;;
72478;SDS011;60658;52.246;5.258;2022-12-07T09:54:43;3.40;;;1.42;;
72478;SDS011;60658;52.246;5.258;2022-12-07T09:55:45;5.65;;;1.60;;
72478;SDS011;60658;52.246;5.258;2022-12-07T09:56:47;5.18;;;1.40;;
72478;SDS011;60658;52.246;5.258;2022-12-07T09:57:48;4.63;;;1.05;;
72478;SDS011;60658;52.246;5.258;2022-12-07T09:58:49;3.40;;;1.13;;
72478;SDS011;60658;52.246;5.258;2022-12-07T09:59:49;5.45;;;1.30;;
72478;SDS011;60658;52.246;5.258;2022-12-07T10:00:50;4.90;;;1.23;;
72478;SDS011;60658;52.246;5.258;2022-12-07T10:01:53;4.07;;;1.27;;
72478;SDS011;60658;52.246;5.258;2022-12-07T10:02:54;5.38;;;1.48;;
72478;SDS011;60658;52.246;5.258;2022-12-07T10:03:59;7.28;;;1.60;;
72478;SDS011;60658;52.246;5.258;2022-12-07T10:05:01;5.93;;;1.50;;
72478;SDS011;60658;52.246;5.258;2022-12-07T10:06:04;4.05;;;0.93;;
72478;SDS011;60658;52.246;5.258;2022-12-07T10:07:05;3.25;;;1.10;;
72478;SDS011;60658;52.246;5.258;2022-12-07T10:08:07;7.22;;;1.52;;
72478;SDS011;60658;52.246;5.258;2022-12-07T10:09:09;5.78;;;1.15;;
72478;SDS011;60658;52.246;5.258;2022-12-07T10:10:13;6.53;;;1.05;;
72478;SDS011;60658;52.246;5.258;2022-12-07T10:11:14;6.43;;;1.30;;
72478;SDS011;60658;52.246;5.258;2022-12-07T10:12:19;5.40;;;1.38;;
72478;SDS011;60658;52.246;5.258;2022-12-07T10:13:20;6.05;;;1.40;;
72478;SDS011;60658;52.246;5.258;2022-12-07T10:14:21;6.38;;;2.05;;
72478;SDS011;60658;52.246;5.258;2022-12-07T10:15:22;4.45;;;1.60;;
72478;SDS011;60658;52.246;5.258;2022-12-07T10:16:35;5.22;;;1.50;;
72478;SDS011;60658;52.246;5.258;2022-12-07T10:17:37;5.07;;;1.85;;
72478;SDS011;60658;52.246;5.258;2022-12-07T10:18:39;8.02;;;1.73;;
72478;SDS011;60658;52.246;5.258;2022-12-07T10:19:40;6.78;;;1.70;;
72478;SDS011;60658;52.246;5.258;2022-12-07T10:20:43;4.50;;;1.55;;
72478;SDS011;60658;52.246;5.258;2022-12-07T10:21:48;8.00;;;1.70;;
72478;SDS011;60658;52.246;5.258;2022-12-07T10:23:00;5.88;;;1.50;;